sensor_id;sensor_type;location;lat;lon;timestamp;P1;durP1;ratioP1;P2;durP2;ratioP2
65751;SDS011;52486;51.098;13.770;2023-04-01T00:00:53;0.65;;;0.63;;
65751;SDS011;52486;51.098;13.770;2023-04-01T00:03:21;0.60;;;0.60;;
65751;SDS011;52486;51.098;13.770;2023-04-01T00:05:47;0.50;;;0.47;;
65751;SDS011;52486;51.098;13.770;2023-04-01T00:08:13;0.50;;;0.50;;
65751;SDS011;52486;51.098;13.770;2023-04-01T00:10:39;0.45;;;0.45;;
65751;SDS011;52486;51.098;13.770;2023-04-01T00:13:05;0.40;;;0.40;;
65751;SDS011;52486;51.098;13.770;2023-04-01T00:15:31;1.42;;;0.60;;
65751;SDS011;52486;51.098;13.770;2023-04-01T00:17:57;0.88;;;0.55;;
65751;SDS011;52486;51.098;13.770;2023-04-01T00:20:22;0.65;;;0.55;;
65751;SDS011;52486;51.098;13.770;2023-04-01T00:22:48;0.40;;;0.40;;
65751;SDS011;52486;51.098;13.770;2023-04-01T00:25:14;0.57;;;0.57;;
65751;SDS011;52486;51.098;13.770;2023-04-01T00:27:40;0.50;;;0.50;;
65751;SDS011;52486;51.098;13.770;2023-04-01T00:30:06;0.57;;;0.40;;
65751;SDS011;52486;51.098;13.770;2023-04-01T00:32:32;0.43;;;0.38;;
65751;SDS011;52486;51.098;13.770;2023-04-01T00:34:58;0.50;;;0.50;;
65751;SDS011;52486;51.098;13.770;2023-04-01T00:37:25;1.65;;;0.50;;
65751;SDS011;52486;51.098;13.770;2023-04-01T00:39:51;0.60;;;0.52;;
65751;SDS011;52486;51.098;13.770;2023-04-01T00:42:17;1.75;;;0.55;;
65751;SDS011;52486;51.098;13.770;2023-04-01T00:44:44;0.77;;;0.55;;
65751;SDS011;52486;51.098;13.770;2023-04-01T00:47:13;0.82;;;0.50;;
65751;SDS011;52486;51.098;13.770;2023-04-01T00:49:40;0.38;;;0.30;;
65751;SDS011;52486;51.098;13.770;2023-04-01T00:52:11;0.32;;;0.30;;
65751;SDS011;52486;51.098;13.770;2023-04-01T00:54:40;0.50;;;0.50;;
65751;SDS011;52486;51.098;13.770;2023-04-01T00:57:13;0.40;;;0.40;;
65751;SDS011;52486;51.098;13.770;2023-04-01T00:59:45;0.43;;;0.40;;
65751;SDS011;52486;51.098;13.770;2023-04-01T01:02:13;0.60;;;0.60;;
65751;SDS011;52486;51.098;13.770;2023-04-01T01:04:39;0.52;;;0.45;;
65751;SDS011;52486;51.098;13.770;2023-04-01T01:09:45;0.50;;;0.43;;
65751;SDS011;52486;51.098;13.770;2023-04-01T01:12:20;0.55;;;0.55;;
65751;SDS011;52486;51.098;13.770;2023-04-01T01:21:09;0.38;;;0.38;;
65751;SDS011;52486;51.098;13.770;2023-04-01T01:23:57;0.40;;;0.40;;
65751;SDS011;52486;51.098;13.770;2023-04-01T01:30:26;1.17;;;0.43;;
65751;SDS011;52486;51.098;13.770;2023-04-01T01:38:00;0.50;;;0.50;;
65751;SDS011;52486;51.098;13.770;2023-04-01T01:40:28;0.40;;;0.35;;
65751;SDS011;52486;51.098;13.770;2023-04-01T01:42:58;0.55;;;0.55;;
65751;SDS011;52486;51.098;13.770;2023-04-01T01:45:27;0.50;;;0.40;;
65751;SDS011;52486;51.098;13.770;2023-04-01T01:47:55;0.32;;;0.30;;
65751;SDS011;52486;51.098;13.770;2023-04-01T01:50:23;0.90;;;0.40;;
65751;SDS011;52486;51.098;13.770;2023-04-01T01:52:51;0.30;;;0.30;;
65751;SDS011;52486;51.098;13.770;2023-04-01T01:55:35;0.40;;;0.40;;
65751;SDS011;52486;51.098;13.770;2023-04-01T01:58:08;0.73;;;0.47;;
65751;SDS011;52486;51.098;13.770;2023-04-01T02:00:34;0.30;;;0.30;;
65751;SDS011;52486;51.098;13.770;2023-04-01T02:03:01;0.40;;;0.40;;
65751;SDS011;52486;51.098;13.770;2023-04-01T02:05:28;0.50;;;0.50;;
65751;SDS011;52486;51.098;13.770;2023-04-01T02:08:18;0.40;;;0.40;;
65751;SDS011;52486;51.098;13.770;2023-04-01T02:11:02;0.30;;;0.30;;
65751;SDS011;52486;51.098;13.770;2023-04-01T02:13:48;0.30;;;0.25;;
65751;SDS011;52486;51.098;13.770;2023-04-01T02:16:34;0.30;;;0.30;;
65751;SDS011;52486;51.098;13.770;2023-04-01T02:19:05;0.52;;;0.40;;
65751;SDS011;52486;51.098;13.770;2023-04-01T02:21:33;0.20;;;0.20;;
65751;SDS011;52486;51.098;13.770;2023-04-01T02:24:00;0.47;;;0.40;;
65751;SDS011;52486;51.098;13.770;2023-04-01T02:26:29;0.40;;;0.40;;
65751;SDS011;52486;51.098;13.770;2023-04-01T02:28:55;0.40;;;0.38;;
65751;SDS011;52486;51.098;13.770;2023-04-01T02:31:22;0.40;;;0.38;;
65751;SDS011;52486;51.098;13.770;2023-04-01T02:33:49;0.40;;;0.40;;
65751;SDS011;52486;51.098;13.770;2023-04-01T02:36:15;0.50;;;0.50;;
65751;SDS011;52486;51.098;13.770;2023-04-01T02:38:42;0.40;;;0.35;;
65751;SDS011;52486;51.098;13.770;2023-04-01T02:41:09;0.30;;;0.30;;
65751;SDS011;52486;51.098;13.770;2023-04-01T02:43:35;0.40;;;0.40;;
65751;SDS011;52486;51.098;13.770;2023-04-01T02:46:01;0.30;;;0.30;;
65751;SDS011;52486;51.098;13.770;2023-04-01T02:48:27;0.22;;;0.22;;
65751;SDS011;52486;51.098;13.770;2023-04-01T02:50:53;0.30;;;0.30;;
65751;SDS011;52486;51.098;13.770;2023-04-01T02:53:18;0.40;;;0.30;;
65751;SDS011;52486;51.098;13.770;2023-04-01T02:55:44;0.32;;;0.30;;
65751;SDS011;52486;51.098;13.770;2023-04-01T02:58:10;0.30;;;0.30;;
65751;SDS011;52486;51.098;13.770;2023-04-01T03:00:36;0.40;;;0.40;;
65751;SDS011;52486;51.098;13.770;2023-04-01T03:03:02;0.38;;;0.38;;
65751;SDS011;52486;51.098;13.770;2023-04-01T03:05:28;0.32;;;0.32;;
65751;SDS011;52486;51.098;13.770;2023-04-01T03:07:54;0.40;;;0.40;;
65751;SDS011;52486;51.098;13.770;2023-04-01T03:10:19;0.20;;;0.20;;
65751;SDS011;52486;51.098;13.770;2023-04-01T03:12:45;0.30;;;0.30;;
65751;SDS011;52486;51.098;13.770;2023-04-01T03:15:11;0.65;;;0.40;;
65751;SDS011;52486;51.098;13.770;2023-04-01T03:17:40;0.20;;;0.20;;
65751;SDS011;52486;51.098;13.770;2023-04-01T03:20:06;0.40;;;0.32;;
65751;SDS011;52486;51.098;13.770;2023-04-01T03:22:33;0.50;;;0.43;;
65751;SDS011;52486;51.098;13.770;2023-04-01T03:25:00;0.38;;;0.30;;
65751;SDS011;52486;51.098;13.770;2023-04-01T03:27:27;0.38;;;0.22;;
65751;SDS011;52486;51.098;13.770;2023-04-01T03:29:53;0.40;;;0.38;;
65751;SDS011;52486;51.098;13.770;2023-04-01T03:32:19;0.20;;;0.20;;
65751;SDS011;52486;51.098;13.770;2023-04-01T03:34:45;0.45;;;0.30;;
65751;SDS011;52486;51.098;13.770;2023-04-01T03:37:10;0.43;;;0.40;;
65751;SDS011;52486;51.098;13.770;2023-04-01T03:39:36;0.28;;;0.28;;
65751;SDS011;52486;51.098;13.770;2023-04-01T03:42:01;0.25;;;0.25;;
65751;SDS011;52486;51.098;13.770;2023-04-01T03:44:31;0.70;;;0.30;;
65751;SDS011;52486;51.098;13.770;2023-04-01T03:46:57;0.30;;;0.30;;
65751;SDS011;52486;51.098;13.770;2023-04-01T03:49:22;0.30;;;0.30;;
65751;SDS011;52486;51.098;13.770;2023-04-01T03:51:48;0.30;;;0.30;;
65751;SDS011;52486;51.098;13.770;2023-04-01T03:54:14;0.38;;;0.20;;
65751;SDS011;52486;51.098;13.770;2023-04-01T03:56:39;0.20;;;0.20;;
65751;SDS011;52486;51.098;13.770;2023-04-01T03:59:06;0.40;;;0.40;;
65751;SDS011;52486;51.098;13.770;2023-04-01T04:01:32;0.30;;;0.30;;
65751;SDS011;52486;51.098;13.770;2023-04-01T04:03:58;0.30;;;0.30;;
65751;SDS011;52486;51.098;13.770;2023-04-01T04:06:24;0.20;;;0.20;;
65751;SDS011;52486;51.098;13.770;2023-04-01T04:08:51;0.30;;;0.30;;
65751;SDS011;52486;51.098;13.770;2023-04-01T04:11:18;0.82;;;0.45;;
65751;SDS011;52486;51.098;13.770;2023-04-01T04:13:44;0.28;;;0.28;;
65751;SDS011;52486;51.098;13.770;2023-04-01T04:16:10;0.98;;;0.25;;
65751;SDS011;52486;51.098;13.770;2023-04-01T04:18:36;0.40;;;0.35;;
65751;SDS011;52486;51.098;13.770;2023-04-01T04:21:02;1.10;;;0.35;;
65751;SDS011;52486;51.098;13.770;2023-04-01T04:23:29;0.30;;;0.30;;
65751;SDS011;52486;51.098;13.770;2023-04-01T04:28:34;1.08;;;0.30;;
65751;SDS011;52486;51.098;13.770;2023-04-01T04:31:00;0.50;;;0.20;;
65751;SDS011;52486;51.098;13.770;2023-04-01T04:33:26;0.15;;;0.15;;
65751;SDS011;52486;51.098;13.770;2023-04-01T04:35:54;0.20;;;0.20;;
65751;SDS011;52486;51.098;13.770;2023-04-01T04:38:21;0.30;;;0.30;;
65751;SDS011;52486;51.098;13.770;2023-04-01T04:40:46;0.25;;;0.25;;
65751;SDS011;52486;51.098;13.770;2023-04-01T04:43:13;0.20;;;0.20;;
65751;SDS011;52486;51.098;13.770;2023-04-01T04:45:40;0.40;;;0.30;;
65751;SDS011;52486;51.098;13.770;2023-04-01T04:48:09;1.85;;;0.40;;
65751;SDS011;52486;51.098;13.770;2023-04-01T04:50:41;0.30;;;0.30;;
65751;SDS011;52486;51.098;13.770;2023-04-01T04:53:11;0.20;;;0.20;;
65751;SDS011;52486;51.098;13.770;2023-04-01T04:55:37;0.30;;;0.30;;
65751;SDS011;52486;51.098;13.770;2023-04-01T04:58:07;0.20;;;0.20;;
65751;SDS011;52486;51.098;13.770;2023-04-01T05:00:33;0.13;;;0.13;;
65751;SDS011;52486;51.098;13.770;2023-04-01T05:02:58;0.10;;;0.10;;
65751;SDS011;52486;51.098;13.770;2023-04-01T05:05:24;0.10;;;0.10;;
65751;SDS011;52486;51.098;13.770;2023-04-01T05:07:50;0.28;;;0.28;;
65751;SDS011;52486;51.098;13.770;2023-04-01T05:10:15;0.30;;;0.30;;
65751;SDS011;52486;51.098;13.770;2023-04-01T05:12:41;0.30;;;0.20;;
65751;SDS011;52486;51.098;13.770;2023-04-01T05:15:07;0.20;;;0.20;;
65751;SDS011;52486;51.098;13.770;2023-04-01T05:17:33;0.20;;;0.20;;
65751;SDS011;52486;51.098;13.770;2023-04-01T05:19:59;0.13;;;0.10;;
65751;SDS011;52486;51.098;13.770;2023-04-01T05:22:25;0.63;;;0.30;;
65751;SDS011;52486;51.098;13.770;2023-04-01T05:24:51;0.55;;;0.25;;
65751;SDS011;52486;51.098;13.770;2023-04-01T05:27:17;0.38;;;0.20;;
65751;SDS011;52486;51.098;13.770;2023-04-01T05:29:42;0.17;;;0.17;;
65751;SDS011;52486;51.098;13.770;2023-04-01T05:32:08;0.15;;;0.15;;
65751;SDS011;52486;51.098;13.770;2023-04-01T05:34:33;0.30;;;0.20;;
65751;SDS011;52486;51.098;13.770;2023-04-01T05:36:59;0.15;;;0.15;;
65751;SDS011;52486;51.098;13.770;2023-04-01T05:39:25;0.20;;;0.20;;
65751;SDS011;52486;51.098;13.770;2023-04-01T05:41:51;0.15;;;0.15;;
65751;SDS011;52486;51.098;13.770;2023-04-01T05:44:17;0.40;;;0.40;;
65751;SDS011;52486;51.098;13.770;2023-04-01T05:46:42;0.30;;;0.30;;
65751;SDS011;52486;51.098;13.770;2023-04-01T05:49:08;0.28;;;0.20;;
65751;SDS011;52486;51.098;13.770;2023-04-01T05:51:33;1.25;;;0.30;;
65751;SDS011;52486;51.098;13.770;2023-04-01T05:53:59;0.30;;;0.30;;
65751;SDS011;52486;51.098;13.770;2023-04-01T05:56:25;0.20;;;0.20;;
65751;SDS011;52486;51.098;13.770;2023-04-01T05:58:51;0.20;;;0.20;;
65751;SDS011;52486;51.098;13.770;2023-04-01T06:01:19;0.20;;;0.20;;
65751;SDS011;52486;51.098;13.770;2023-04-01T06:03:45;0.20;;;0.20;;
65751;SDS011;52486;51.098;13.770;2023-04-01T06:06:15;0.38;;;0.20;;
65751;SDS011;52486;51.098;13.770;2023-04-01T06:08:45;0.30;;;0.30;;
65751;SDS011;52486;51.098;13.770;2023-04-01T06:14:09;0.30;;;0.30;;
65751;SDS011;52486;51.098;13.770;2023-04-01T06:19:51;0.30;;;0.20;;
65751;SDS011;52486;51.098;13.770;2023-04-01T06:25:04;0.40;;;0.30;;
65751;SDS011;52486;51.098;13.770;2023-04-01T06:41:16;0.55;;;0.22;;
65751;SDS011;52486;51.098;13.770;2023-04-01T06:44:12;0.25;;;0.20;;
65751;SDS011;52486;51.098;13.770;2023-04-01T06:46:44;0.70;;;0.30;;
65751;SDS011;52486;51.098;13.770;2023-04-01T06:55:00;1.10;;;0.20;;
65751;SDS011;52486;51.098;13.770;2023-04-01T06:57:49;0.57;;;0.38;;
65751;SDS011;52486;51.098;13.770;2023-04-01T07:02:48;0.30;;;0.20;;
65751;SDS011;52486;51.098;13.770;2023-04-01T07:05:29;0.30;;;0.30;;
65751;SDS011;52486;51.098;13.770;2023-04-01T07:07:57;0.35;;;0.30;;
65751;SDS011;52486;51.098;13.770;2023-04-01T07:11:13;0.30;;;0.30;;
65751;SDS011;52486;51.098;13.770;2023-04-01T07:14:10;0.43;;;0.13;;
65751;SDS011;52486;51.098;13.770;2023-04-01T07:22:05;0.30;;;0.30;;
65751;SDS011;52486;51.098;13.770;2023-04-01T07:24:44;0.30;;;0.30;;
65751;SDS011;52486;51.098;13.770;2023-04-01T07:27:12;0.38;;;0.20;;
65751;SDS011;52486;51.098;13.770;2023-04-01T07:29:38;0.22;;;0.22;;
65751;SDS011;52486;51.098;13.770;2023-04-01T07:32:16;0.38;;;0.30;;
65751;SDS011;52486;51.098;13.770;2023-04-01T07:35:04;0.30;;;0.22;;
65751;SDS011;52486;51.098;13.770;2023-04-01T07:37:52;0.20;;;0.20;;
65751;SDS011;52486;51.098;13.770;2023-04-01T07:48:55;0.35;;;0.35;;
65751;SDS011;52486;51.098;13.770;2023-04-01T07:52:18;0.20;;;0.20;;
65751;SDS011;52486;51.098;13.770;2023-04-01T07:56:57;0.20;;;0.20;;
65751;SDS011;52486;51.098;13.770;2023-04-01T08:02:20;0.30;;;0.30;;
65751;SDS011;52486;51.098;13.770;2023-04-01T08:05:30;0.25;;;0.25;;
65751;SDS011;52486;51.098;13.770;2023-04-01T08:11:08;0.15;;;0.15;;
65751;SDS011;52486;51.098;13.770;2023-04-01T08:19:28;0.20;;;0.20;;
65751;SDS011;52486;51.098;13.770;2023-04-01T08:21:54;0.20;;;0.20;;
65751;SDS011;52486;51.098;13.770;2023-04-01T08:24:33;0.20;;;0.13;;
65751;SDS011;52486;51.098;13.770;2023-04-01T08:27:26;0.08;;;0.08;;
65751;SDS011;52486;51.098;13.770;2023-04-01T08:37:56;0.40;;;0.30;;
65751;SDS011;52486;51.098;13.770;2023-04-01T08:40:44;0.20;;;0.20;;
65751;SDS011;52486;51.098;13.770;2023-04-01T08:51:43;0.13;;;0.10;;
65751;SDS011;52486;51.098;13.770;2023-04-01T08:54:43;0.20;;;0.20;;
65751;SDS011;52486;51.098;13.770;2023-04-01T09:03:15;0.40;;;0.30;;
65751;SDS011;52486;51.098;13.770;2023-04-01T09:05:59;0.10;;;0.10;;
65751;SDS011;52486;51.098;13.770;2023-04-01T09:11:12;0.28;;;0.20;;
65751;SDS011;52486;51.098;13.770;2023-04-01T09:52:56;0.28;;;0.20;;
65751;SDS011;52486;51.098;13.770;2023-04-01T09:55:44;0.30;;;0.20;;
65751;SDS011;52486;51.098;13.770;2023-04-01T09:58:45;0.13;;;0.13;;
65751;SDS011;52486;51.098;13.770;2023-04-01T10:07:15;0.28;;;0.20;;
65751;SDS011;52486;51.098;13.770;2023-04-01T10:52:23;0.10;;;0.10;;
65751;SDS011;52486;51.098;13.770;2023-04-01T11:00:51;0.10;;;0.10;;
65751;SDS011;52486;51.098;13.770;2023-04-01T11:12:26;0.15;;;0.10;;
65751;SDS011;52486;51.098;13.770;2023-04-01T11:17:56;0.47;;;0.20;;
65751;SDS011;52486;51.098;13.770;2023-04-01T11:45:32;0.25;;;0.10;;
65751;SDS011;52486;51.098;13.770;2023-04-01T11:51:04;0.10;;;0.10;;
65751;SDS011;52486;51.098;13.770;2023-04-01T12:04:45;0.15;;;0.15;;
65751;SDS011;52486;51.098;13.770;2023-04-01T12:10:26;0.52;;;0.20;;
65751;SDS011;52486;51.098;13.770;2023-04-01T12:16:04;0.10;;;0.10;;
65751;SDS011;52486;51.098;13.770;2023-04-01T12:37:41;0.20;;;0.20;;
65751;SDS011;52486;51.098;13.770;2023-04-01T12:40:46;0.28;;;0.10;;
65751;SDS011;52486;51.098;13.770;2023-04-01T12:52:12;0.55;;;0.20;;
65751;SDS011;52486;51.098;13.770;2023-04-01T12:54:57;0.00;;;0.00;;
65751;SDS011;52486;51.098;13.770;2023-04-01T12:57:45;0.00;;;0.00;;
65751;SDS011;52486;51.098;13.770;2023-04-01T13:06:33;0.30;;;0.20;;
65751;SDS011;52486;51.098;13.770;2023-04-01T13:25:24;0.10;;;0.10;;
65751;SDS011;52486;51.098;13.770;2023-04-01T13:36:19;0.30;;;0.30;;
65751;SDS011;52486;51.098;13.770;2023-04-01T13:38:55;0.10;;;0.10;;
65751;SDS011;52486;51.098;13.770;2023-04-01T13:44:00;0.10;;;0.10;;
65751;SDS011;52486;51.098;13.770;2023-04-01T13:49:30;0.10;;;0.10;;
65751;SDS011;52486;51.098;13.770;2023-04-01T14:11:27;0.10;;;0.10;;
65751;SDS011;52486;51.098;13.770;2023-04-01T14:14:56;0.20;;;0.10;;
65751;SDS011;52486;51.098;13.770;2023-04-01T14:20:02;0.20;;;0.20;;
65751;SDS011;52486;51.098;13.770;2023-04-01T14:22:37;0.10;;;0.10;;
65751;SDS011;52486;51.098;13.770;2023-04-01T14:25:18;0.10;;;0.10;;
65751;SDS011;52486;51.098;13.770;2023-04-01T14:49:52;0.10;;;0.10;;
65751;SDS011;52486;51.098;13.770;2023-04-01T14:52:28;0.10;;;0.10;;
65751;SDS011;52486;51.098;13.770;2023-04-01T14:55:01;0.20;;;0.20;;
65751;SDS011;52486;51.098;13.770;2023-04-01T14:57:43;0.15;;;0.15;;
65751;SDS011;52486;51.098;13.770;2023-04-01T15:09:17;0.10;;;0.10;;
65751;SDS011;52486;51.098;13.770;2023-04-01T15:17:29;0.10;;;0.10;;
65751;SDS011;52486;51.098;13.770;2023-04-01T15:36:52;0.20;;;0.20;;
65751;SDS011;52486;51.098;13.770;2023-04-01T15:39:35;0.10;;;0.10;;
65751;SDS011;52486;51.098;13.770;2023-04-01T16:00:28;0.10;;;0.10;;
65751;SDS011;52486;51.098;13.770;2023-04-01T16:03:04;0.10;;;0.10;;
65751;SDS011;52486;51.098;13.770;2023-04-01T16:22:30;0.10;;;0.10;;
65751;SDS011;52486;51.098;13.770;2023-04-01T16:28:15;0.10;;;0.10;;
65751;SDS011;52486;51.098;13.770;2023-04-01T16:36:36;0.10;;;0.10;;
65751;SDS011;52486;51.098;13.770;2023-04-01T16:41:49;0.20;;;0.13;;
65751;SDS011;52486;51.098;13.770;2023-04-01T16:44:44;0.10;;;0.10;;
65751;SDS011;52486;51.098;13.770;2023-04-01T16:47:20;0.00;;;0.00;;
65751;SDS011;52486;51.098;13.770;2023-04-01T16:49:53;0.10;;;0.10;;
65751;SDS011;52486;51.098;13.770;2023-04-01T16:55:35;0.10;;;0.10;;
65751;SDS011;52486;51.098;13.770;2023-04-01T17:01:14;0.10;;;0.10;;
65751;SDS011;52486;51.098;13.770;2023-04-01T17:03:49;0.20;;;0.20;;
65751;SDS011;52486;51.098;13.770;2023-04-01T17:06:39;0.10;;;0.10;;
65751;SDS011;52486;51.098;13.770;2023-04-01T17:15:02;0.15;;;0.15;;
65751;SDS011;52486;51.098;13.770;2023-04-01T17:17:47;0.10;;;0.10;;
65751;SDS011;52486;51.098;13.770;2023-04-01T17:20:26;0.10;;;0.10;;
65751;SDS011;52486;51.098;13.770;2023-04-01T17:23:53;0.20;;;0.10;;
65751;SDS011;52486;51.098;13.770;2023-04-01T17:34:31;0.10;;;0.10;;
65751;SDS011;52486;51.098;13.770;2023-04-01T17:37:28;0.10;;;0.10;;
65751;SDS011;52486;51.098;13.770;2023-04-01T17:40:26;0.10;;;0.10;;
65751;SDS011;52486;51.098;13.770;2023-04-01T17:43:15;0.10;;;0.10;;
65751;SDS011;52486;51.098;13.770;2023-04-01T17:46:50;0.10;;;0.10;;
65751;SDS011;52486;51.098;13.770;2023-04-01T17:54:10;0.15;;;0.15;;
65751;SDS011;52486;51.098;13.770;2023-04-01T18:07:45;0.10;;;0.10;;
65751;SDS011;52486;51.098;13.770;2023-04-01T18:16:29;0.10;;;0.10;;
65751;SDS011;52486;51.098;13.770;2023-04-01T18:21:55;0.10;;;0.10;;
65751;SDS011;52486;51.098;13.770;2023-04-01T18:26:59;0.10;;;0.10;;
65751;SDS011;52486;51.098;13.770;2023-04-01T18:35:21;0.10;;;0.10;;
65751;SDS011;52486;51.098;13.770;2023-04-01T18:41:15;0.10;;;0.10;;
65751;SDS011;52486;51.098;13.770;2023-04-01T18:47:03;0.10;;;0.10;;
65751;SDS011;52486;51.098;13.770;2023-04-01T18:49:59;0.10;;;0.10;;
65751;SDS011;52486;51.098;13.770;2023-04-01T18:52:42;0.10;;;0.10;;
65751;SDS011;52486;51.098;13.770;2023-04-01T18:58:11;0.03;;;0.03;;
65751;SDS011;52486;51.098;13.770;2023-04-01T19:01:04;0.03;;;0.03;;
65751;SDS011;52486;51.098;13.770;2023-04-01T19:03:53;0.10;;;0.10;;
65751;SDS011;52486;51.098;13.770;2023-04-01T19:06:31;0.10;;;0.10;;
65751;SDS011;52486;51.098;13.770;2023-04-01T19:09:16;0.20;;;0.20;;
65751;SDS011;52486;51.098;13.770;2023-04-01T19:11:57;0.10;;;0.10;;
65751;SDS011;52486;51.098;13.770;2023-04-01T19:31:03;0.00;;;0.00;;
65751;SDS011;52486;51.098;13.770;2023-04-01T19:36:20;0.10;;;0.10;;
65751;SDS011;52486;51.098;13.770;2023-04-01T19:41:58;0.10;;;0.10;;
65751;SDS011;52486;51.098;13.770;2023-04-01T19:53:04;0.08;;;0.08;;
65751;SDS011;52486;51.098;13.770;2023-04-01T19:55:58;0.20;;;0.20;;
65751;SDS011;52486;51.098;13.770;2023-04-01T20:01:14;0.10;;;0.10;;
65751;SDS011;52486;51.098;13.770;2023-04-01T20:03:54;0.00;;;0.00;;
65751;SDS011;52486;51.098;13.770;2023-04-01T20:06:33;0.10;;;0.10;;
65751;SDS011;52486;51.098;13.770;2023-04-01T20:15:00;0.10;;;0.10;;
65751;SDS011;52486;51.098;13.770;2023-04-01T20:17:45;0.10;;;0.10;;
65751;SDS011;52486;51.098;13.770;2023-04-01T20:36:34;0.10;;;0.10;;
65751;SDS011;52486;51.098;13.770;2023-04-01T20:39:20;0.17;;;0.10;;
65751;SDS011;52486;51.098;13.770;2023-04-01T20:50:29;0.10;;;0.10;;
65751;SDS011;52486;51.098;13.770;2023-04-01T20:53:12;0.10;;;0.10;;
65751;SDS011;52486;51.098;13.770;2023-04-01T21:07:20;0.20;;;0.15;;
65751;SDS011;52486;51.098;13.770;2023-04-01T21:26:54;0.30;;;0.30;;
65751;SDS011;52486;51.098;13.770;2023-04-01T21:35:58;0.10;;;0.10;;
65751;SDS011;52486;51.098;13.770;2023-04-01T21:38:40;0.40;;;0.10;;
65751;SDS011;52486;51.098;13.770;2023-04-01T21:58:31;0.00;;;0.00;;
65751;SDS011;52486;51.098;13.770;2023-04-01T22:06:49;0.10;;;0.10;;
65751;SDS011;52486;51.098;13.770;2023-04-01T22:09:42;0.10;;;0.10;;
65751;SDS011;52486;51.098;13.770;2023-04-01T22:12:46;0.20;;;0.20;;
65751;SDS011;52486;51.098;13.770;2023-04-01T22:21:04;0.17;;;0.17;;
65751;SDS011;52486;51.098;13.770;2023-04-01T22:31:38;0.20;;;0.20;;
65751;SDS011;52486;51.098;13.770;2023-04-01T22:34:31;0.20;;;0.17;;
65751;SDS011;52486;51.098;13.770;2023-04-01T22:47:23;0.10;;;0.10;;
65751;SDS011;52486;51.098;13.770;2023-04-01T22:52:43;0.10;;;0.10;;
65751;SDS011;52486;51.098;13.770;2023-04-01T22:57:52;0.20;;;0.20;;
65751;SDS011;52486;51.098;13.770;2023-04-01T23:05:56;0.52;;;0.10;;
65751;SDS011;52486;51.098;13.770;2023-04-01T23:11:18;0.20;;;0.20;;
65751;SDS011;52486;51.098;13.770;2023-04-01T23:13:49;0.22;;;0.22;;
65751;SDS011;52486;51.098;13.770;2023-04-01T23:16:32;0.10;;;0.10;;
65751;SDS011;52486;51.098;13.770;2023-04-01T23:33:11;0.10;;;0.10;;
65751;SDS011;52486;51.098;13.770;2023-04-01T23:38:39;0.10;;;0.10;;
65751;SDS011;52486;51.098;13.770;2023-04-01T23:41:07;0.20;;;0.20;;
65751;SDS011;52486;51.098;13.770;2023-04-01T23:43:41;0.10;;;0.10;;
65751;SDS011;52486;51.098;13.770;2023-04-01T23:46:08;0.20;;;0.20;;
65751;SDS011;52486;51.098;13.770;2023-04-01T23:51:10;0.10;;;0.10;;
65751;SDS011;52486;51.098;13.770;2023-04-01T23:53:43;0.10;;;0.10;;
65751;SDS011;52486;51.098;13.770;2023-04-01T23:56:10;0.20;;;0.20;;
